sensor_id;sensor_type;location;lat;lon;timestamp;P1;durP1;ratioP1;P2;durP2;ratioP2
4527;SDS011;62320;51.520;6.818;2022-12-18T00:01:39;39.03;;;18.07;;
4527;SDS011;62320;51.520;6.818;2022-12-18T00:11:40;47.40;;;19.25;;
4527;SDS011;62320;51.520;6.818;2022-12-18T00:21:43;18.27;;;8.83;;
4527;SDS011;62320;51.520;6.818;2022-12-18T00:31:44;14.23;;;3.83;;
4527;SDS011;62320;51.520;6.818;2022-12-18T00:41:46;39.03;;;18.17;;
4527;SDS011;62320;51.520;6.818;2022-12-18T00:52:06;45.87;;;18.93;;
4527;SDS011;62320;51.520;6.818;2022-12-18T01:02:07;41.77;;;18.43;;
4527;SDS011;62320;51.520;6.818;2022-12-18T01:12:09;47.00;;;18.95;;
4527;SDS011;62320;51.520;6.818;2022-12-18T01:22:10;32.83;;;14.93;;
4527;SDS011;62320;51.520;6.818;2022-12-18T01:32:11;38.40;;;15.27;;
4527;SDS011;62320;51.520;6.818;2022-12-18T01:42:14;24.10;;;11.80;;
4527;SDS011;62320;51.520;6.818;2022-12-18T01:52:17;31.02;;;13.65;;
4527;SDS011;62320;51.520;6.818;2022-12-18T02:02:21;37.23;;;16.47;;
4527;SDS011;62320;51.520;6.818;2022-12-18T02:12:24;30.03;;;14.83;;
4527;SDS011;62320;51.520;6.818;2022-12-18T02:22:32;34.15;;;15.70;;
4527;SDS011;62320;51.520;6.818;2022-12-18T02:32:52;25.57;;;12.87;;
4527;SDS011;62320;51.520;6.818;2022-12-18T02:42:55;40.30;;;15.00;;
4527;SDS011;62320;51.520;6.818;2022-12-18T03:03:29;31.67;;;15.15;;
4527;SDS011;62320;51.520;6.818;2022-12-18T03:13:52;23.23;;;12.50;;
4527;SDS011;62320;51.520;6.818;2022-12-18T03:23:58;24.57;;;12.03;;
4527;SDS011;62320;51.520;6.818;2022-12-18T03:34:02;33.83;;;14.95;;
4527;SDS011;62320;51.520;6.818;2022-12-18T03:44:10;30.33;;;13.23;;
4527;SDS011;62320;51.520;6.818;2022-12-18T03:54:16;34.67;;;13.07;;
4527;SDS011;62320;51.520;6.818;2022-12-18T04:04:19;23.40;;;11.38;;
4527;SDS011;62320;51.520;6.818;2022-12-18T04:14:23;29.30;;;13.13;;
4527;SDS011;62320;51.520;6.818;2022-12-18T04:24:24;30.87;;;12.93;;
4527;SDS011;62320;51.520;6.818;2022-12-18T04:34:26;24.45;;;9.77;;
4527;SDS011;62320;51.520;6.818;2022-12-18T04:44:27;25.95;;;12.77;;
4527;SDS011;62320;51.520;6.818;2022-12-18T04:54:28;21.73;;;9.77;;
4527;SDS011;62320;51.520;6.818;2022-12-18T05:04:30;30.23;;;12.80;;
4527;SDS011;62320;51.520;6.818;2022-12-18T05:14:31;24.77;;;11.18;;
4527;SDS011;62320;51.520;6.818;2022-12-18T05:24:32;31.70;;;13.53;;
4527;SDS011;62320;51.520;6.818;2022-12-18T05:34:34;27.93;;;12.33;;
4527;SDS011;62320;51.520;6.818;2022-12-18T05:44:35;26.17;;;11.55;;
4527;SDS011;62320;51.520;6.818;2022-12-18T05:54:36;28.83;;;10.77;;
4527;SDS011;62320;51.520;6.818;2022-12-18T06:04:38;26.47;;;12.37;;
4527;SDS011;62320;51.520;6.818;2022-12-18T06:14:39;31.33;;;14.48;;
4527;SDS011;62320;51.520;6.818;2022-12-18T06:24:41;15.27;;;8.05;;
4527;SDS011;62320;51.520;6.818;2022-12-18T06:34:42;25.60;;;11.10;;
4527;SDS011;62320;51.520;6.818;2022-12-18T06:44:44;28.47;;;10.50;;
4527;SDS011;62320;51.520;6.818;2022-12-18T06:54:45;15.15;;;9.70;;
4527;SDS011;62320;51.520;6.818;2022-12-18T07:04:46;25.27;;;11.93;;
4527;SDS011;62320;51.520;6.818;2022-12-18T07:14:51;22.97;;;10.87;;
4527;SDS011;62320;51.520;6.818;2022-12-18T07:24:52;23.02;;;11.18;;
4527;SDS011;62320;51.520;6.818;2022-12-18T07:34:54;16.77;;;9.63;;
4527;SDS011;62320;51.520;6.818;2022-12-18T07:44:55;29.70;;;13.00;;
4527;SDS011;62320;51.520;6.818;2022-12-18T07:54:58;33.17;;;14.55;;
4527;SDS011;62320;51.520;6.818;2022-12-18T08:04:59;18.55;;;11.05;;
4527;SDS011;62320;51.520;6.818;2022-12-18T08:15:01;13.83;;;6.70;;
4527;SDS011;62320;51.520;6.818;2022-12-18T08:25:03;25.63;;;9.90;;
4527;SDS011;62320;51.520;6.818;2022-12-18T08:35:05;16.95;;;7.88;;
4527;SDS011;62320;51.520;6.818;2022-12-18T08:45:07;17.77;;;8.40;;
4527;SDS011;62320;51.520;6.818;2022-12-18T08:55:09;16.70;;;9.37;;
4527;SDS011;62320;51.520;6.818;2022-12-18T09:05:11;16.83;;;7.13;;
4527;SDS011;62320;51.520;6.818;2022-12-18T09:15:12;20.33;;;9.10;;
4527;SDS011;62320;51.520;6.818;2022-12-18T09:25:13;19.83;;;10.70;;
4527;SDS011;62320;51.520;6.818;2022-12-18T09:35:15;22.58;;;10.40;;
4527;SDS011;62320;51.520;6.818;2022-12-18T09:45:16;21.63;;;10.15;;
4527;SDS011;62320;51.520;6.818;2022-12-18T09:55:24;18.10;;;9.80;;
4527;SDS011;62320;51.520;6.818;2022-12-18T10:26:02;22.73;;;9.83;;
4527;SDS011;62320;51.520;6.818;2022-12-18T10:36:08;24.83;;;12.27;;
4527;SDS011;62320;51.520;6.818;2022-12-18T10:56:11;24.90;;;9.87;;
4527;SDS011;62320;51.520;6.818;2022-12-18T11:06:14;21.10;;;10.77;;
4527;SDS011;62320;51.520;6.818;2022-12-18T11:16:22;17.50;;;8.38;;
4527;SDS011;62320;51.520;6.818;2022-12-18T11:26:33;31.27;;;14.70;;
4527;SDS011;62320;51.520;6.818;2022-12-18T11:36:41;29.80;;;14.17;;
4527;SDS011;62320;51.520;6.818;2022-12-18T11:46:49;28.03;;;13.03;;
4527;SDS011;62320;51.520;6.818;2022-12-18T12:38:50;14.07;;;6.40;;
4527;SDS011;62320;51.520;6.818;2022-12-18T12:48:56;9.60;;;4.27;;
4527;SDS011;62320;51.520;6.818;2022-12-18T12:59:13;12.70;;;5.20;;
4527;SDS011;62320;51.520;6.818;2022-12-18T13:09:22;13.05;;;5.35;;
4527;SDS011;62320;51.520;6.818;2022-12-18T13:19:23;12.60;;;5.50;;
4527;SDS011;62320;51.520;6.818;2022-12-18T13:30:01;12.97;;;5.80;;
4527;SDS011;62320;51.520;6.818;2022-12-18T13:39:55;10.20;;;4.60;;
4527;SDS011;62320;51.520;6.818;2022-12-18T13:49:56;14.20;;;5.87;;
4527;SDS011;62320;51.520;6.818;2022-12-18T13:59:59;15.27;;;6.30;;
4527;SDS011;62320;51.520;6.818;2022-12-18T14:10:30;19.73;;;8.07;;
4527;SDS011;62320;51.520;6.818;2022-12-18T14:20:50;13.03;;;5.83;;
4527;SDS011;62320;51.520;6.818;2022-12-18T14:30:54;18.47;;;7.73;;
4527;SDS011;62320;51.520;6.818;2022-12-18T14:40:58;16.40;;;8.40;;
4527;SDS011;62320;51.520;6.818;2022-12-18T14:51:17;15.63;;;7.43;;
4527;SDS011;62320;51.520;6.818;2022-12-18T15:01:28;18.27;;;8.27;;
4527;SDS011;62320;51.520;6.818;2022-12-18T15:21:43;16.25;;;6.45;;
4527;SDS011;62320;51.520;6.818;2022-12-18T15:31:44;20.67;;;7.07;;
4527;SDS011;62320;51.520;6.818;2022-12-18T15:42:19;10.40;;;5.03;;
4527;SDS011;62320;51.520;6.818;2022-12-18T15:52:40;19.00;;;8.70;;
4527;SDS011;62320;51.520;6.818;2022-12-18T16:02:44;19.03;;;7.83;;
4527;SDS011;62320;51.520;6.818;2022-12-18T16:12:46;22.40;;;8.27;;
4527;SDS011;62320;51.520;6.818;2022-12-18T16:22:48;21.35;;;8.25;;
4527;SDS011;62320;51.520;6.818;2022-12-18T16:32:50;19.33;;;7.75;;
4527;SDS011;62320;51.520;6.818;2022-12-18T16:42:51;21.97;;;9.63;;
4527;SDS011;62320;51.520;6.818;2022-12-18T16:52:53;25.00;;;11.83;;
4527;SDS011;62320;51.520;6.818;2022-12-18T17:02:54;23.60;;;8.52;;
4527;SDS011;62320;51.520;6.818;2022-12-18T17:12:56;28.43;;;12.80;;
4527;SDS011;62320;51.520;6.818;2022-12-18T17:22:57;24.13;;;11.40;;
4527;SDS011;62320;51.520;6.818;2022-12-18T17:33:00;24.23;;;9.95;;
4527;SDS011;62320;51.520;6.818;2022-12-18T17:43:01;28.77;;;12.20;;
4527;SDS011;62320;51.520;6.818;2022-12-18T17:53:03;22.20;;;8.37;;
4527;SDS011;62320;51.520;6.818;2022-12-18T18:03:04;26.45;;;10.30;;
4527;SDS011;62320;51.520;6.818;2022-12-18T18:13:06;27.02;;;11.85;;
4527;SDS011;62320;51.520;6.818;2022-12-18T18:23:46;25.63;;;11.17;;
4527;SDS011;62320;51.520;6.818;2022-12-18T18:33:49;30.90;;;13.93;;
4527;SDS011;62320;51.520;6.818;2022-12-18T18:43:54;29.00;;;13.25;;
4527;SDS011;62320;51.520;6.818;2022-12-18T18:53:57;29.40;;;13.67;;
4527;SDS011;62320;51.520;6.818;2022-12-18T19:04:00;29.87;;;12.47;;
4527;SDS011;62320;51.520;6.818;2022-12-18T19:14:03;38.72;;;15.80;;
4527;SDS011;62320;51.520;6.818;2022-12-18T19:24:06;23.70;;;10.57;;
4527;SDS011;62320;51.520;6.818;2022-12-18T19:34:09;25.17;;;10.73;;
4527;SDS011;62320;51.520;6.818;2022-12-18T19:44:15;30.83;;;12.95;;
4527;SDS011;62320;51.520;6.818;2022-12-18T19:54:17;34.05;;;14.00;;
4527;SDS011;62320;51.520;6.818;2022-12-18T20:04:19;27.93;;;11.63;;
4527;SDS011;62320;51.520;6.818;2022-12-18T20:14:20;38.33;;;15.67;;
4527;SDS011;62320;51.520;6.818;2022-12-18T20:24:23;51.88;;;21.65;;
4527;SDS011;62320;51.520;6.818;2022-12-18T20:34:25;33.00;;;13.30;;
4527;SDS011;62320;51.520;6.818;2022-12-18T20:44:27;36.13;;;14.83;;
4527;SDS011;62320;51.520;6.818;2022-12-18T20:54:29;34.55;;;14.70;;
4527;SDS011;62320;51.520;6.818;2022-12-18T21:04:30;22.93;;;7.97;;
4527;SDS011;62320;51.520;6.818;2022-12-18T21:14:31;34.93;;;14.20;;
4527;SDS011;62320;51.520;6.818;2022-12-18T21:24:33;36.22;;;14.70;;
4527;SDS011;62320;51.520;6.818;2022-12-18T21:34:35;37.63;;;15.05;;
4527;SDS011;62320;51.520;6.818;2022-12-18T21:44:37;44.07;;;18.70;;
4527;SDS011;62320;51.520;6.818;2022-12-18T21:54:42;33.80;;;12.37;;
4527;SDS011;62320;51.520;6.818;2022-12-18T22:04:43;31.17;;;11.95;;
4527;SDS011;62320;51.520;6.818;2022-12-18T22:14:46;35.27;;;13.73;;
4527;SDS011;62320;51.520;6.818;2022-12-18T22:24:48;34.57;;;12.67;;
4527;SDS011;62320;51.520;6.818;2022-12-18T22:34:49;34.38;;;12.18;;
4527;SDS011;62320;51.520;6.818;2022-12-18T22:44:51;27.20;;;10.63;;
4527;SDS011;62320;51.520;6.818;2022-12-18T22:54:52;36.07;;;14.23;;
4527;SDS011;62320;51.520;6.818;2022-12-18T23:04:54;40.33;;;19.52;;
4527;SDS011;62320;51.520;6.818;2022-12-18T23:14:56;33.10;;;12.80;;
4527;SDS011;62320;51.520;6.818;2022-12-18T23:24:57;30.60;;;12.17;;
4527;SDS011;62320;51.520;6.818;2022-12-18T23:34:59;34.00;;;13.07;;
4527;SDS011;62320;51.520;6.818;2022-12-18T23:45:00;31.85;;;12.35;;
4527;SDS011;62320;51.520;6.818;2022-12-18T23:55:09;37.43;;;15.30;;
